Yellowstone Regional Airport Cody US
ICAO: KCOD
IATA: COD
Category: Medium
Scheduled Services: No

Elevation: 5102 ft
TransAlt. 18000 ft.

Airport Communications:
AWOS 3:135.075
SALT LAKE CITY CNTR:133.25
CASPER RDO:122.3
CTAF/UNICOM:122.8

KCOD Zoom In..

Runways:

(A) RW 04 length 8268 ft width 100 ft
---- / hdg 38

(B) RW 22 length 8268 ft width 100 ft
---- / hdg 218

Location; KCOD
Day. 20 / Time. 02.56 Zulu
* Altimeter: 30.09
* Temperature: 23° c. 73.4°f.
* Wind from: 310° Speed 05 kn.
Dewpoint: 08° c.
Visibility: 10 Statute Miles.
Clouds: Clear (automated report).

KCOD 200256Z AUTO 31005KT 10SM CLR 23/08 A3009 RMK AO2 SLP136 T02280078 53004


Wind From 310°
Speed 05 kn.

 
 
jpsmedia.com for Web Design worldairports.se 2018   terms of use